Time;durP1;ratioP1;P1;durP2;ratioP2;P2;SDS_P1;SDS_P2;PMS_P1;PMS_P2;Temp;Humidity;BMP_temperature;BMP_pressure;BME280_temperature;BME280_humidity;BME280_pressure;Samples;Min_cycle;Max_cycle;Signal;HPM_P1;HPM_P2
2022/03/29 00:00:10;;;;;;;;;;;;;;;;;;5031321;28;904;-64
2022/03/29 00:02:36;;;;;;;;;;;;;;;;;;5031381;28;896;-63
2022/03/29 00:05:04;;;;;;;;;;;;;;;;;;5031168;28;1112;-64
2022/03/29 00:07:30;;;;;;;;;;;;;;;;;;5031975;28;842;-64
2022/03/29 00:09:55;;;;;;;;;;;;;;;;;;5031086;28;1910;-63
2022/03/29 00:12:20;;;;;;;;;;;;;;;;;;5031488;28;813;-64
2022/03/29 00:14:46;;;;;;;;;;;;;;;;;;5031855;28;984;-63
2022/03/29 00:17:11;;;;;;;;;;;;;;;;;;5031222;28;837;-64
2022/03/29 00:19:36;;;;;;;;;;;;;;;;;;5031035;28;830;-64
2022/03/29 00:22:03;;;;;;;;;;;;;;;;;;5030884;28;1178;-63
2022/03/29 00:24:28;;;;;;;;;;;;;;;;;;5030913;28;935;-64
2022/03/29 00:26:53;;;;;;;;;;;;;;;;;;5031402;28;1081;-64
2022/03/29 00:29:19;;;;;;;;;;;;;;;;;;5030960;28;2011;-64
2022/03/29 00:31:44;;;;;;;;;;;;;;;;;;5030852;28;1160;-63
2022/03/29 00:34:09;;;;;;;;;;;;;;;;;;5031144;28;815;-63
2022/03/29 00:36:34;;;;;;;;;;;;;;;;;;5031298;28;888;-63
2022/03/29 00:39:00;;;;;;;;;;;;;;;;;;5013120;28;1312;-64
2022/03/29 00:41:25;;;;;;;;;;;;;;;;;;5015643;28;1462;-63
2022/03/29 00:43:51;;;;;;;;;;;;;;;;;;5045457;28;1069;-64
2022/03/29 00:46:16;;;;;;;;;;;;;;;;;;5028674;28;1134;-63
2022/03/29 00:48:41;;;;;;;;;;;;;;;;;;5034540;28;1910;-64
2022/03/29 00:51:07;;;;;;;;;;;;;;;;;;5029788;28;1180;-64
2022/03/29 00:53:33;;;;;;;;;;;;;;;;;;5029495;28;1360;-64
2022/03/29 00:55:59;;;;;;;;;;;;;;;;;;5030596;28;1189;-63
2022/03/29 00:58:25;;;;;;;;;;;;;;;;;;5030404;28;1004;-63
2022/03/29 01:00:52;;;;;;;;;;;;;;;;;;5031372;28;754;-64
2022/03/29 01:03:18;;;;;;;;;;;;;;;;;;5031209;28;900;-64
2022/03/29 01:05:43;;;;;;;;;;;;;;;;;;5031521;28;967;-64
2022/03/29 01:08:08;;;;;;;;;;;;;;;;;;5030876;28;1894;-64
2022/03/29 01:10:34;;;;;;;;;;;;;;;;;;5030993;28;868;-63
2022/03/29 01:12:59;;;;;;;;;;;;;;;;;;5031160;28;930;-64
2022/03/29 01:15:26;;;;;;;;;;;;;;;;;;5030705;28;1380;-64
2022/03/29 01:17:53;;;;;;;;;;;;;;;;;;5031260;28;861;-64
2022/03/29 01:20:19;;;;;;;;;;;;;;;;;;5031129;28;817;-63
2022/03/29 01:22:46;;;;;;;;;;;;;;;;;;5031132;28;856;-63
2022/03/29 01:25:16;;;;;;;;;;;;;;;;;;5012672;28;826;-63
2022/03/29 01:27:42;;;;;;;;;;;;;;;;;;5030251;28;1056;-63
2022/03/29 01:30:07;;;;;;;;;;;;;;;;;;5030020;28;1909;-63
2022/03/29 01:32:35;;;;;;;;;;;;;;;;;;5030218;28;814;-64
2022/03/29 01:35:01;;;;;;;;;;;;;;;;;;5031048;28;845;-63
2022/03/29 01:37:27;;;;;;;;;;;;;;;;;;5030237;28;895;-63
2022/03/29 01:39:53;;;;;;;;;;;;;;;;;;5030428;28;833;-63
2022/03/29 01:42:18;;;;;;;;;;;;;;;;;;5030401;28;821;-64
2022/03/29 01:44:44;;;;;;;;;;;;;;;;;;5012490;28;842;-64
2022/03/29 01:47:09;;;;;;;;;;;;;;;;;;5030340;28;991;-63
2022/03/29 01:49:34;;;;;;;;;;;;;;;;;;5013132;28;1964;-63
2022/03/29 01:52:00;;;;;;;;;;;;;;;;;;5030357;28;924;-64
2022/03/29 01:54:25;;;;;;;;;;;;;;;;;;5029644;28;794;-63
2022/03/29 01:56:51;;;;;;;;;;;;;;;;;;5013074;28;895;-64
2022/03/29 01:59:16;;;;;;;;;;;;;;;;;;5034184;28;1027;-63
2022/03/29 02:01:45;;;;;;;;;;;;;;;;;;5033911;28;849;-63
2022/03/29 02:04:11;;;;;;;;;;;;;;;;;;5034041;28;877;-64
2022/03/29 02:06:36;;;;;;;;;;;;;;;;;;5033730;28;838;-63
2022/03/29 02:09:03;;;;;;;;;;;;;;;;;;5015891;28;1894;-64
2022/03/29 02:11:29;;;;;;;;;;;;;;;;;;5033370;28;1089;-63
2022/03/29 02:13:54;;;;;;;;;;;;;;;;;;5033819;28;825;-63
2022/03/29 02:16:19;;;;;;;;;;;;;;;;;;5034197;28;912;-65
2022/03/29 02:18:45;;;;;;;;;;;;;;;;;;5016048;28;1775;-63
2022/03/29 02:21:13;;;;;;;;;;;;;;;;;;5033812;28;946;-64
2022/03/29 02:23:38;;;;;;;;;;;;;;;;;;5033101;28;1130;-64
2022/03/29 02:26:04;;;;;;;;;;;;;;;;;;5033561;28;883;-63
2022/03/29 02:28:29;;;;;;;;;;;;;;;;;;5032772;28;1912;-63
2022/03/29 02:30:54;;;;;;;;;;;;;;;;;;5033443;28;1093;-64
2022/03/29 02:33:20;;;;;;;;;;;;;;;;;;5033452;28;639;-63
2022/03/29 02:35:45;;;;;;;;;;;;;;;;;;5015520;28;1231;-63
2022/03/29 02:38:11;;;;;;;;;;;;;;;;;;5033028;28;778;-64
2022/03/29 02:40:37;;;;;;;;;;;;;;;;;;5033005;28;852;-63
2022/03/29 02:43:02;;;;;;;;;;;;;;;;;;5033221;28;884;-63
2022/03/29 02:45:27;;;;;;;;;;;;;;;;;;5032862;28;818;-64
2022/03/29 02:47:54;;;;;;;;;;;;;;;;;;5015086;28;1322;-64
2022/03/29 02:50:19;;;;;;;;;;;;;;;;;;5032982;28;1963;-63
2022/03/29 02:52:48;;;;;;;;;;;;;;;;;;5032849;28;935;-63
2022/03/29 02:55:14;;;;;;;;;;;;;;;;;;5032967;28;908;-63
2022/03/29 02:57:40;;;;;;;;;;;;;;;;;;5032876;28;914;-63
2022/03/29 03:00:06;;;;;;;;;;;;;;;;;;5033548;28;837;-63
2022/03/29 03:02:34;;;;;;;;;;;;;;;;;;5014572;28;893;-64
2022/03/29 03:05:00;;;;;;;;;;;;;;;;;;5033046;28;896;-63
2022/03/29 03:07:25;;;;;;;;;;;;;;;;;;5032667;28;988;-63
2022/03/29 03:09:50;;;;;;;;;;;;;;;;;;5032620;28;1951;-63
2022/03/29 03:12:16;;;;;;;;;;;;;;;;;;5033349;28;837;-63
2022/03/29 03:14:41;;;;;;;;;;;;;;;;;;5032954;28;1158;-63
2022/03/29 03:17:06;;;;;;;;;;;;;;;;;;5033045;28;837;-63
2022/03/29 03:19:31;;;;;;;;;;;;;;;;;;5032763;28;821;-63
2022/03/29 03:21:57;;;;;;;;;;;;;;;;;;5015455;28;897;-63
2022/03/29 03:24:22;;;;;;;;;;;;;;;;;;5032831;28;979;-63
2022/03/29 03:26:47;;;;;;;;;;;;;;;;;;5014938;28;943;-63
2022/03/29 03:29:13;;;;;;;;;;;;;;;;;;5033009;28;1910;-63
2022/03/29 03:31:38;;;;;;;;;;;;;;;;;;5032103;28;1212;-63
2022/03/29 03:34:03;;;;;;;;;;;;;;;;;;5033084;28;900;-64
2022/03/29 03:36:28;;;;;;;;;;;;;;;;;;5032498;28;912;-63
2022/03/29 03:38:54;;;;;;;;;;;;;;;;;;5015328;28;1690;-63
2022/03/29 03:41:19;;;;;;;;;;;;;;;;;;5032760;28;1101;-63
2022/03/29 03:43:44;;;;;;;;;;;;;;;;;;5032108;28;821;-63
2022/03/29 03:46:10;;;;;;;;;;;;;;;;;;5032318;28;1054;-63
2022/03/29 03:48:35;;;;;;;;;;;;;;;;;;5031762;28;1917;-63
2022/03/29 03:51:01;;;;;;;;;;;;;;;;;;5032259;28;999;-63
2022/03/29 03:53:26;;;;;;;;;;;;;;;;;;5032216;28;840;-63
2022/03/29 03:55:52;;;;;;;;;;;;;;;;;;5031641;28;957;-63
2022/03/29 03:58:17;;;;;;;;;;;;;;;;;;5014022;28;949;-64
2022/03/29 04:00:42;;;;;;;;;;;;;;;;;;5031580;28;872;-63
2022/03/29 04:03:09;;;;;;;;;;;;;;;;;;5032142;28;771;-63
2022/03/29 04:05:34;;;;;;;;;;;;;;;;;;5031606;28;899;-64
2022/03/29 04:07:59;;;;;;;;;;;;;;;;;;5031650;28;836;-64
2022/03/29 04:10:26;;;;;;;;;;;;;;;;;;5031669;28;1906;-63
2022/03/29 04:12:51;;;;;;;;;;;;;;;;;;5031034;28;881;-63
2022/03/29 04:15:16;;;;;;;;;;;;;;;;;;5031489;28;907;-63
2022/03/29 04:17:42;;;;;;;;;;;;;;;;;;5031045;28;805;-64
2022/03/29 04:20:07;;;;;;;;;;;;;;;;;;5031679;28;785;-63
2022/03/29 04:22:32;;;;;;;;;;;;;;;;;;5030790;28;1138;-64
2022/03/29 04:24:58;;;;;;;;;;;;;;;;;;5031539;28;767;-63
2022/03/29 04:27:23;;;;;;;;;;;;;;;;;;5031370;28;822;-63
2022/03/29 04:29:48;;;;;;;;;;;;;;;;;;5013315;28;1969;-64
2022/03/29 04:32:14;;;;;;;;;;;;;;;;;;5012899;28;1256;-63
2022/03/29 04:34:40;;;;;;;;;;;;;;;;;;5030884;28;828;-63
2022/03/29 04:37:05;;;;;;;;;;;;;;;;;;5031080;28;810;-63
2022/03/29 04:39:31;;;;;;;;;;;;;;;;;;5031374;28;840;-64
2022/03/29 04:41:57;;;;;;;;;;;;;;;;;;5031120;28;821;-63
2022/03/29 04:44:22;;;;;;;;;;;;;;;;;;5031438;28;1022;-63
2022/03/29 04:46:47;;;;;;;;;;;;;;;;;;5031074;28;988;-63
2022/03/29 04:49:13;;;;;;;;;;;;;;;;;;5031065;28;1971;-63
2022/03/29 04:51:38;;;;;;;;;;;;;;;;;;5030947;28;849;-63
2022/03/29 04:54:03;;;;;;;;;;;;;;;;;;5031549;28;836;-63
2022/03/29 04:56:29;;;;;;;;;;;;;;;;;;5031194;28;876;-63
2022/03/29 04:58:54;;;;;;;;;;;;;;;;;;5030695;28;1232;-63
2022/03/29 05:01:20;;;;;;;;;;;;;;;;;;5031309;28;1161;-63
2022/03/29 05:03:45;;;;;;;;;;;;;;;;;;5031436;28;1618;-63
2022/03/29 05:06:11;;;;;;;;;;;;;;;;;;5013792;28;759;-63
2022/03/29 05:08:39;;;;;;;;;;;;;;;;;;5031870;28;1902;-63
2022/03/29 05:11:04;;;;;;;;;;;;;;;;;;5046714;28;865;-63
2022/03/29 05:13:30;;;;;;;;;;;;;;;;;;5031666;28;1074;-63
2022/03/29 05:15:55;;;;;;;;;;;;;;;;;;5047005;28;1450;-63
2022/03/29 05:18:21;;;;;;;;;;;;;;;;;;5032191;28;813;-64
2022/03/29 05:20:46;;;;;;;;;;;;;;;;;;5031626;28;908;-63
2022/03/29 05:23:11;;;;;;;;;;;;;;;;;;5031550;28;944;-63
2022/03/29 05:25:37;;;;;;;;;;;;;;;;;;5031547;28;810;-63
2022/03/29 05:28:02;;;;;;;;;;;;;;;;;;5031294;28;881;-64
2022/03/29 05:30:28;;;;;;;;;;;;;;;;;;5031399;28;1880;-63
2022/03/29 05:33:00;;;;;;;;;;;;;;;;;;5033181;28;1375;-63
2022/03/29 05:35:29;;;;;;;;;;;;;;;;;;5035384;28;926;-63
2022/03/29 05:37:54;;;;;;;;;;;;;;;;;;5035254;28;854;-63
2022/03/29 05:40:20;;;;;;;;;;;;;;;;;;5035853;28;881;-63
2022/03/29 05:42:45;;;;;;;;;;;;;;;;;;5017618;28;1621;-63
2022/03/29 05:45:12;;;;;;;;;;;;;;;;;;5034621;28;892;-63
2022/03/29 05:50:21;;;;;;;;;;;;;;;;;;5034407;28;1910;-61
2022/03/29 05:52:47;;;;;;;;;;;;;;;;;;5033990;28;1213;-62
2022/03/29 05:55:12;;;;;;;;;;;;;;;;;;5034299;28;896;-62
2022/03/29 05:57:37;;;;;;;;;;;;;;;;;;5016210;28;1176;-62
2022/03/29 06:00:04;;;;;;;;;;;;;;;;;;5034134;28;853;-62
2022/03/29 06:02:29;;;;;;;;;;;;;;;;;;5034014;28;869;-62
2022/03/29 06:04:54;;;;;;;;;;;;;;;;;;5033543;28;979;-62
2022/03/29 06:07:20;;;;;;;;;;;;;;;;;;5034283;28;956;-63
2022/03/29 06:09:45;;;;;;;;;;;;;;;;;;5033565;28;1894;-62
2022/03/29 06:12:10;;;;;;;;;;;;;;;;;;5033679;28;900;-62
2022/03/29 06:14:36;;;;;;;;;;;;;;;;;;5033224;28;893;-62
2022/03/29 06:17:01;;;;;;;;;;;;;;;;;;5033347;28;892;-62
2022/03/29 06:19:27;;;;;;;;;;;;;;;;;;5033880;28;908;-62
2022/03/29 06:21:52;;;;;;;;;;;;;;;;;;5033349;28;833;-61
2022/03/29 06:24:18;;;;;;;;;;;;;;;;;;5033776;28;1050;-61
2022/03/29 06:26:43;;;;;;;;;;;;;;;;;;5033567;28;833;-62
2022/03/29 06:29:09;;;;;;;;;;;;;;;;;;5033086;28;1910;-62
2022/03/29 06:31:35;;;;;;;;;;;;;;;;;;5031632;28;1254;-62
2022/03/29 06:34:00;;;;;;;;;;;;;;;;;;5031100;28;1149;-62
2022/03/29 06:36:26;;;;;;;;;;;;;;;;;;5032217;28;972;-61
2022/03/29 06:38:52;;;;;;;;;;;;;;;;;;5032214;28;870;-62
2022/03/29 06:41:17;;;;;;;;;;;;;;;;;;5032739;28;957;-62
2022/03/29 06:43:42;;;;;;;;;;;;;;;;;;5013196;28;849;-61
2022/03/29 06:46:09;;;;;;;;;;;;;;;;;;5032572;28;932;-62
2022/03/29 06:48:37;;;;;;;;;;;;;;;;;;5015002;28;1957;-62
2022/03/29 06:51:03;;;;;;;;;;;;;;;;;;5031949;28;1118;-61
2022/03/29 06:53:28;;;;;;;;;;;;;;;;;;5014255;28;857;-62
2022/03/29 06:55:53;;;;;;;;;;;;;;;;;;5015337;28;848;-62
2022/03/29 06:58:19;;;;;;;;;;;;;;;;;;5033768;28;1387;-62
2022/03/29 07:00:44;;;;;;;;;;;;;;;;;;5033280;28;872;-62
2022/03/29 07:03:10;;;;;;;;;;;;;;;;;;5033197;28;932;-62
2022/03/29 07:05:38;;;;;;;;;;;;;;;;;;5033372;28;846;-62
2022/03/29 07:08:04;;;;;;;;;;;;;;;;;;5032774;28;932;-62
2022/03/29 07:13:13;;;;;;;;;;;;;;;;;;5033193;28;919;-62
2022/03/29 07:15:38;;;;;;;;;;;;;;;;;;5032900;28;881;-62
2022/03/29 07:18:04;;;;;;;;;;;;;;;;;;5032834;28;1011;-62
2022/03/29 07:20:29;;;;;;;;;;;;;;;;;;5033390;28;865;-62
2022/03/29 07:22:56;;;;;;;;;;;;;;;;;;5032441;28;903;-62
2022/03/29 07:25:21;;;;;;;;;;;;;;;;;;5032731;28;847;-62
2022/03/29 07:27:49;;;;;;;;;;;;;;;;;;5032270;28;958;-62
2022/03/29 07:30:15;;;;;;;;;;;;;;;;;;5032391;28;1906;-62
2022/03/29 07:32:44;;;;;;;;;;;;;;;;;;5031920;28;1205;-62
2022/03/29 07:35:10;;;;;;;;;;;;;;;;;;5031966;28;814;-62
2022/03/29 07:37:35;;;;;;;;;;;;;;;;;;5032311;28;1197;-62
2022/03/29 07:40:00;;;;;;;;;;;;;;;;;;5032332;28;826;-62
2022/03/29 07:42:26;;;;;;;;;;;;;;;;;;5032097;28;857;-62
2022/03/29 07:44:51;;;;;;;;;;;;;;;;;;5032137;28;1007;-62
2022/03/29 07:47:19;;;;;;;;;;;;;;;;;;5032015;28;834;-62
2022/03/29 07:49:44;;;;;;;;;;;;;;;;;;5031311;28;1910;-62
2022/03/29 07:52:10;;;;;;;;;;;;;;;;;;5013376;28;1425;-62
2022/03/29 07:54:35;;;;;;;;;;;;;;;;;;5031327;28;933;-62
2022/03/29 07:57:01;;;;;;;;;;;;;;;;;;5031483;28;879;-62
2022/03/29 07:59:26;;;;;;;;;;;;;;;;;;5031659;28;870;-62
2022/03/29 08:01:52;;;;;;;;;;;;;;;;;;5031604;28;883;-61
2022/03/29 08:04:17;;;;;;;;;;;;;;;;;;5031592;28;857;-62
2022/03/29 08:06:42;;;;;;;;;;;;;;;;;;5031214;28;907;-62
2022/03/29 08:09:07;;;;;;;;;;;;;;;;;;5030938;28;1914;-62
2022/03/29 08:11:34;;;;;;;;;;;;;;;;;;5031332;28;856;-62
2022/03/29 08:13:59;;;;;;;;;;;;;;;;;;5031812;28;820;-62
2022/03/29 08:16:27;;;;;;;;;;;;;;;;;;4997339;28;877;-64
2022/03/29 08:18:55;;;;;;;;;;;;;;;;;;5031280;28;993;-62
2022/03/29 08:24:04;;;;;;;;;;;;;;;;;;5030896;28;619;-62
2022/03/29 08:26:30;;;;;;;;;;;;;;;;;;5031211;28;972;-62
2022/03/29 08:28:56;;;;;;;;;;;;;;;;;;5031021;28;1950;-62
2022/03/29 08:31:22;;;;;;;;;;;;;;;;;;5031043;28;1368;-63
2022/03/29 08:33:47;;;;;;;;;;;;;;;;;;5031588;28;873;-62
2022/03/29 08:36:13;;;;;;;;;;;;;;;;;;5031149;28;980;-62
2022/03/29 08:38:38;;;;;;;;;;;;;;;;;;5031168;28;865;-63
2022/03/29 08:41:05;;;;;;;;;;;;;;;;;;5031451;28;770;-62
2022/03/29 08:43:30;;;;;;;;;;;;;;;;;;5030749;28;1207;-62
2022/03/29 08:45:56;;;;;;;;;;;;;;;;;;5031622;28;882;-62
2022/03/29 08:48:26;;;;;;;;;;;;;;;;;;5049676;28;1961;-62
2022/03/29 08:50:52;;;;;;;;;;;;;;;;;;5051741;28;868;-62
2022/03/29 08:53:19;;;;;;;;;;;;;;;;;;5051681;28;1003;-62
2022/03/29 08:55:45;;;;;;;;;;;;;;;;;;5051476;28;914;-62
2022/03/29 08:58:11;;;;;;;;;;;;;;;;;;5051600;28;1043;-62
2022/03/29 09:00:36;;;;;;;;;;;;;;;;;;5051283;28;897;-62
2022/03/29 09:03:02;;;;;;;;;;;;;;;;;;5051453;28;920;-62
2022/03/29 09:05:29;;;;;;;;;;;;;;;;;;5051316;28;912;-62
2022/03/29 09:07:58;;;;;;;;;;;;;;;;;;5050551;28;1054;-62
2022/03/29 09:10:38;;;;;;;;;;;;;;;;;;5050999;28;1901;-62
2022/03/29 09:13:16;;;;;;;;;;;;;;;;;;5051186;28;885;-62
2022/03/29 09:15:54;;;;;;;;;;;;;;;;;;5051284;28;896;-62
2022/03/29 09:18:20;;;;;;;;;;;;;;;;;;5051400;28;924;-62
2022/03/29 09:20:46;;;;;;;;;;;;;;;;;;5051103;28;936;-62
2022/03/29 09:23:13;;;;;;;;;;;;;;;;;;5051138;28;813;-62
2022/03/29 09:25:39;;;;;;;;;;;;;;;;;;5050863;28;848;-62
2022/03/29 09:28:10;;;;;;;;;;;;;;;;;;5050525;28;1027;-62
2022/03/29 09:30:39;;;;;;;;;;;;;;;;;;5050637;28;1961;-62
2022/03/29 09:33:07;;;;;;;;;;;;;;;;;;5050672;28;1193;-62
2022/03/29 09:35:33;;;;;;;;;;;;;;;;;;5050288;28;845;-62
2022/03/29 09:37:59;;;;;;;;;;;;;;;;;;5050316;28;849;-62
2022/03/29 09:40:32;;;;;;;;;;;;;;;;;;5050635;28;840;-62
2022/03/29 09:43:05;;;;;;;;;;;;;;;;;;5050440;28;901;-62
2022/03/29 09:45:42;;;;;;;;;;;;;;;;;;5050552;28;914;-62
2022/03/29 09:48:23;;;;;;;;;;;;;;;;;;5051003;28;884;-62
2022/03/29 09:50:51;;;;;;;;;;;;;;;;;;5050661;28;635;-62
2022/03/29 09:53:37;;;;;;;;;;;;;;;;;;5049974;28;1050;-62
2022/03/29 09:56:02;;;;;;;;;;;;;;;;;;5050353;28;987;-62
2022/03/29 09:58:28;;;;;;;;;;;;;;;;;;5050106;28;1098;-62
2022/03/29 10:00:55;;;;;;;;;;;;;;;;;;5050186;28;920;-60
2022/03/29 10:03:23;;;;;;;;;;;;;;;;;;5050116;28;1476;-62
2022/03/29 10:05:49;;;;;;;;;;;;;;;;;;5050105;28;845;-61
2022/03/29 10:11:01;;;;;;;;;;;;;;;;;;5050327;28;786;-61
2022/03/29 10:13:29;;;;;;;;;;;;;;;;;;5050048;28;856;-62
2022/03/29 10:15:55;;;;;;;;;;;;;;;;;;5049902;28;810;-62
2022/03/29 10:18:23;;;;;;;;;;;;;;;;;;5050490;28;876;-62
2022/03/29 10:20:49;;;;;;;;;;;;;;;;;;5053943;28;837;-62
2022/03/29 10:23:14;;;;;;;;;;;;;;;;;;5053283;28;903;-62
2022/03/29 10:25:41;;;;;;;;;;;;;;;;;;5053313;28;849;-61
2022/03/29 10:28:07;;;;;;;;;;;;;;;;;;5053990;28;990;-62
2022/03/29 10:30:32;;;;;;;;;;;;;;;;;;5053456;28;1972;-61
2022/03/29 10:33:16;;;;;;;;;;;;;;;;;;5053333;28;1037;-62
2022/03/29 10:36:00;;;;;;;;;;;;;;;;;;5053082;28;884;-62
2022/03/29 10:38:46;;;;;;;;;;;;;;;;;;5053273;28;1157;-61
2022/03/29 10:41:27;;;;;;;;;;;;;;;;;;5053432;28;900;-61
2022/03/29 10:44:01;;;;;;;;;;;;;;;;;;5053382;28;887;-62
2022/03/29 10:46:45;;;;;;;;;;;;;;;;;;5053244;28;806;-62
2022/03/29 10:49:20;;;;;;;;;;;;;;;;;;5053998;28;1914;-62
2022/03/29 10:51:57;;;;;;;;;;;;;;;;;;5053394;28;883;-61
2022/03/29 10:54:30;;;;;;;;;;;;;;;;;;5053456;28;825;-61
2022/03/29 10:56:59;;;;;;;;;;;;;;;;;;5053131;28;1564;-62
2022/03/29 10:59:25;;;;;;;;;;;;;;;;;;5052813;28;936;-62
2022/03/29 11:02:07;;;;;;;;;;;;;;;;;;5052737;28;810;-62
2022/03/29 11:04:33;;;;;;;;;;;;;;;;;;5052620;28;948;-62
2022/03/29 11:07:04;;;;;;;;;;;;;;;;;;5052902;28;916;-62
2022/03/29 11:09:30;;;;;;;;;;;;;;;;;;5052333;28;1898;-62
2022/03/29 11:11:55;;;;;;;;;;;;;;;;;;5052577;28;849;-62
2022/03/29 11:14:37;;;;;;;;;;;;;;;;;;5052943;28;905;-61
2022/03/29 11:17:09;;;;;;;;;;;;;;;;;;5051875;28;952;-62
2022/03/29 11:19:48;;;;;;;;;;;;;;;;;;5052057;28;868;-62
2022/03/29 11:22:41;;;;;;;;;;;;;;;;;;5052181;28;1191;-62
2022/03/29 11:25:09;;;;;;;;;;;;;;;;;;5034646;28;853;-62
2022/03/29 11:27:36;;;;;;;;;;;;;;;;;;5051826;28;904;-62
2022/03/29 11:30:04;;;;;;;;;;;;;;;;;;5051228;28;1965;-62
2022/03/29 11:32:30;;;;;;;;;;;;;;;;;;5051657;28;1232;-62
2022/03/29 11:34:56;;;;;;;;;;;;;;;;;;5051931;28;742;-62
2022/03/29 11:37:29;;;;;;;;;;;;;;;;;;5052195;28;864;-62
2022/03/29 11:39:54;;;;;;;;;;;;;;;;;;5051784;28;824;-62
2022/03/29 11:42:20;;;;;;;;;;;;;;;;;;5052112;28;987;-62
2022/03/29 11:44:49;;;;;;;;;;;;;;;;;;5052328;28;952;-62
2022/03/29 11:47:14;;;;;;;;;;;;;;;;;;5051907;28;837;-62
2022/03/29 11:49:40;;;;;;;;;;;;;;;;;;5051295;28;1906;-62
2022/03/29 11:52:07;;;;;;;;;;;;;;;;;;5051993;28;943;-62
2022/03/29 11:54:43;;;;;;;;;;;;;;;;;;5051536;28;900;-62
2022/03/29 11:57:14;;;;;;;;;;;;;;;;;;5052089;28;889;-61
2022/03/29 11:59:39;;;;;;;;;;;;;;;;;;5051248;28;981;-61
2022/03/29 12:02:05;;;;;;;;;;;;;;;;;;5051312;28;754;-62
2022/03/29 12:04:32;;;;;;;;;;;;;;;;;;5033756;28;726;-62
2022/03/29 12:06:57;;;;;;;;;;;;;;;;;;5051764;28;853;-63
2022/03/29 12:09:24;;;;;;;;;;;;;;;;;;5051442;28;1898;-62
2022/03/29 12:11:53;;;;;;;;;;;;;;;;;;5051626;28;987;-61
2022/03/29 12:14:22;;;;;;;;;;;;;;;;;;5052186;28;987;-62
2022/03/29 12:16:49;;;;;;;;;;;;;;;;;;5051584;28;900;-62
2022/03/29 12:19:18;;;;;;;;;;;;;;;;;;5052062;28;826;-61
2022/03/29 12:21:54;;;;;;;;;;;;;;;;;;5051398;28;844;-62
2022/03/29 12:24:20;;;;;;;;;;;;;;;;;;5052288;28;844;-62
2022/03/29 12:26:51;;;;;;;;;;;;;;;;;;5033903;28;805;-62
2022/03/29 12:29:17;;;;;;;;;;;;;;;;;;5052008;28;1957;-61
2022/03/29 12:31:43;;;;;;;;;;;;;;;;;;5051149;28;1263;-62
2022/03/29 12:34:09;;;;;;;;;;;;;;;;;;5051601;28;895;-61
2022/03/29 12:36:41;;;;;;;;;;;;;;;;;;5051715;28;828;-62
2022/03/29 12:39:07;;;;;;;;;;;;;;;;;;5033957;28;798;-62
2022/03/29 12:41:51;;;;;;;;;;;;;;;;;;5050751;28;1023;-62
2022/03/29 12:44:36;;;;;;;;;;;;;;;;;;5051610;28;809;-61
2022/03/29 12:47:03;;;;;;;;;;;;;;;;;;5050943;28;857;-62
2022/03/29 12:49:29;;;;;;;;;;;;;;;;;;5051240;28;1906;-62
2022/03/29 12:51:55;;;;;;;;;;;;;;;;;;5050980;28;986;-62
2022/03/29 12:54:31;;;;;;;;;;;;;;;;;;5051245;28;809;-62
2022/03/29 12:56:58;;;;;;;;;;;;;;;;;;5050462;28;995;-62
2022/03/29 12:59:26;;;;;;;;;;;;;;;;;;5050780;28;896;-61
2022/03/29 13:01:51;;;;;;;;;;;;;;;;;;5050380;28;836;-62
2022/03/29 13:04:17;;;;;;;;;;;;;;;;;;5051117;28;766;-62
2022/03/29 13:06:43;;;;;;;;;;;;;;;;;;5050765;28;836;-62
2022/03/29 13:09:16;;;;;;;;;;;;;;;;;;5032781;28;1952;-62
2022/03/29 13:11:42;;;;;;;;;;;;;;;;;;5050473;28;845;-62
2022/03/29 13:14:08;;;;;;;;;;;;;;;;;;5050534;28;924;-62
2022/03/29 13:16:34;;;;;;;;;;;;;;;;;;5051035;28;856;-62
2022/03/29 13:19:00;;;;;;;;;;;;;;;;;;5050061;28;1226;-62
2022/03/29 13:21:33;;;;;;;;;;;;;;;;;;5050608;28;911;-62
2022/03/29 13:24:06;;;;;;;;;;;;;;;;;;5050127;28;918;-62
2022/03/29 13:26:32;;;;;;;;;;;;;;;;;;5050700;28;852;-62
2022/03/29 13:28:58;;;;;;;;;;;;;;;;;;5050196;28;1898;-62
2022/03/29 13:31:24;;;;;;;;;;;;;;;;;;5050944;28;1084;-62
2022/03/29 13:33:50;;;;;;;;;;;;;;;;;;5051461;28;1297;-62
2022/03/29 13:36:17;;;;;;;;;;;;;;;;;;5050986;28;874;-62
2022/03/29 13:38:43;;;;;;;;;;;;;;;;;;5050900;28;836;-62
2022/03/29 13:41:09;;;;;;;;;;;;;;;;;;5050765;28;1035;-62
2022/03/29 13:43:35;;;;;;;;;;;;;;;;;;5051330;28;888;-62
2022/03/29 13:46:00;;;;;;;;;;;;;;;;;;5050927;28;928;-62
2022/03/29 13:48:25;;;;;;;;;;;;;;;;;;5051182;28;801;-62
2022/03/29 13:50:51;;;;;;;;;;;;;;;;;;5050555;28;1910;-62
2022/03/29 13:53:20;;;;;;;;;;;;;;;;;;5052262;28;939;-62
2022/03/29 13:55:45;;;;;;;;;;;;;;;;;;5055221;28;871;-62
2022/03/29 13:58:11;;;;;;;;;;;;;;;;;;5036653;28;2454;-62
2022/03/29 14:00:37;;;;;;;;;;;;;;;;;;5054194;28;947;-62
2022/03/29 14:03:03;;;;;;;;;;;;;;;;;;5054285;28;861;-62
2022/03/29 14:05:29;;;;;;;;;;;;;;;;;;5054107;28;865;-62
2022/03/29 14:07:55;;;;;;;;;;;;;;;;;;5053683;28;895;-62
2022/03/29 14:10:21;;;;;;;;;;;;;;;;;;5053988;28;1902;-62
2022/03/29 14:12:46;;;;;;;;;;;;;;;;;;5053746;28;837;-62
2022/03/29 14:15:12;;;;;;;;;;;;;;;;;;5036158;28;939;-62
2022/03/29 14:17:38;;;;;;;;;;;;;;;;;;5053796;28;841;-62
2022/03/29 14:20:04;;;;;;;;;;;;;;;;;;5035031;28;1070;-62
2022/03/29 14:22:32;;;;;;;;;;;;;;;;;;5053689;28;817;-62
2022/03/29 14:24:58;;;;;;;;;;;;;;;;;;5053655;28;864;-62
2022/03/29 14:27:23;;;;;;;;;;;;;;;;;;5053915;28;804;-62
2022/03/29 14:29:48;;;;;;;;;;;;;;;;;;5053420;28;1973;-62
2022/03/29 14:32:14;;;;;;;;;;;;;;;;;;5035660;28;1260;-62
2022/03/29 14:34:39;;;;;;;;;;;;;;;;;;5053841;28;927;-62
2022/03/29 14:37:05;;;;;;;;;;;;;;;;;;5053292;28;877;-62
2022/03/29 14:39:32;;;;;;;;;;;;;;;;;;5035736;28;1004;-62
2022/03/29 14:41:57;;;;;;;;;;;;;;;;;;5052949;28;892;-62
2022/03/29 14:44:22;;;;;;;;;;;;;;;;;;5053797;28;951;-62
2022/03/29 14:46:47;;;;;;;;;;;;;;;;;;5053497;28;841;-62
2022/03/29 14:49:13;;;;;;;;;;;;;;;;;;5053355;28;1934;-62
2022/03/29 14:51:38;;;;;;;;;;;;;;;;;;5053484;28;837;-62
2022/03/29 14:54:04;;;;;;;;;;;;;;;;;;5052991;28;903;-63
2022/03/29 14:56:29;;;;;;;;;;;;;;;;;;5053487;28;961;-62
2022/03/29 14:58:55;;;;;;;;;;;;;;;;;;5053362;28;1000;-63
2022/03/29 15:01:20;;;;;;;;;;;;;;;;;;5052983;28;994;-60
2022/03/29 15:03:46;;;;;;;;;;;;;;;;;;5035622;28;880;-62
2022/03/29 15:06:11;;;;;;;;;;;;;;;;;;5051708;28;813;-62
2022/03/29 15:08:36;;;;;;;;;;;;;;;;;;5053194;28;1874;-63
2022/03/29 15:11:02;;;;;;;;;;;;;;;;;;5033986;28;869;-62
2022/03/29 15:13:27;;;;;;;;;;;;;;;;;;5052293;28;979;-62
2022/03/29 15:15:52;;;;;;;;;;;;;;;;;;5052200;28;970;-63
2022/03/29 15:18:18;;;;;;;;;;;;;;;;;;5052272;28;876;-62
2022/03/29 15:20:44;;;;;;;;;;;;;;;;;;5052140;28;820;-63
2022/03/29 15:23:10;;;;;;;;;;;;;;;;;;5051801;28;935;-62
2022/03/29 15:25:35;;;;;;;;;;;;;;;;;;5052436;28;852;-62
2022/03/29 15:28:00;;;;;;;;;;;;;;;;;;5052082;28;891;-62
2022/03/29 15:30:26;;;;;;;;;;;;;;;;;;5034700;28;1914;-63
2022/03/29 15:32:51;;;;;;;;;;;;;;;;;;5052362;28;1056;-62
2022/03/29 15:35:17;;;;;;;;;;;;;;;;;;5052304;28;861;-62
2022/03/29 15:37:44;;;;;;;;;;;;;;;;;;5052279;28;797;-62
2022/03/29 15:40:10;;;;;;;;;;;;;;;;;;5052052;28;884;-62
2022/03/29 15:42:36;;;;;;;;;;;;;;;;;;5052402;28;1657;-62
2022/03/29 15:45:02;;;;;;;;;;;;;;;;;;5051544;28;892;-62
2022/03/29 15:47:27;;;;;;;;;;;;;;;;;;5052417;28;845;-62
2022/03/29 15:49:52;;;;;;;;;;;;;;;;;;5051638;28;1902;-62
2022/03/29 15:52:18;;;;;;;;;;;;;;;;;;5052063;28;1054;-62
2022/03/29 15:54:44;;;;;;;;;;;;;;;;;;5052032;28;817;-62
2022/03/29 15:57:10;;;;;;;;;;;;;;;;;;5033697;28;989;-62
2022/03/29 15:59:37;;;;;;;;;;;;;;;;;;5051989;28;896;-62
2022/03/29 16:02:02;;;;;;;;;;;;;;;;;;5036762;28;1256;-62
2022/03/29 16:04:27;;;;;;;;;;;;;;;;;;5030427;28;893;-62
2022/03/29 16:06:53;;;;;;;;;;;;;;;;;;5013507;28;817;-62
2022/03/29 16:09:18;;;;;;;;;;;;;;;;;;5032002;28;1961;-62
2022/03/29 16:11:45;;;;;;;;;;;;;;;;;;5032154;28;1089;-62
2022/03/29 16:14:10;;;;;;;;;;;;;;;;;;5031401;28;1058;-62
2022/03/29 16:16:36;;;;;;;;;;;;;;;;;;5031622;28;857;-62
2022/03/29 16:19:02;;;;;;;;;;;;;;;;;;5031733;28;838;-62
2022/03/29 16:21:27;;;;;;;;;;;;;;;;;;5032016;28;947;-62
2022/03/29 16:23:53;;;;;;;;;;;;;;;;;;5013869;28;833;-62
2022/03/29 16:26:18;;;;;;;;;;;;;;;;;;5032204;28;868;-62
2022/03/29 16:28:43;;;;;;;;;;;;;;;;;;5031755;28;1947;-62
2022/03/29 16:31:11;;;;;;;;;;;;;;;;;;5031774;28;861;-62
2022/03/29 16:33:37;;;;;;;;;;;;;;;;;;5031196;28;1323;-62
2022/03/29 16:36:02;;;;;;;;;;;;;;;;;;5013877;28;1100;-62
2022/03/29 16:38:28;;;;;;;;;;;;;;;;;;5031770;28;833;-62
2022/03/29 16:40:53;;;;;;;;;;;;;;;;;;5031494;28;1039;-62
2022/03/29 16:43:20;;;;;;;;;;;;;;;;;;5031532;28;853;-62
2022/03/29 16:45:46;;;;;;;;;;;;;;;;;;5031702;28;880;-62
2022/03/29 16:48:11;;;;;;;;;;;;;;;;;;5031168;28;771;-62
2022/03/29 16:50:36;;;;;;;;;;;;;;;;;;5031765;28;1967;-62
2022/03/29 16:53:02;;;;;;;;;;;;;;;;;;5031301;28;802;-62
2022/03/29 16:55:27;;;;;;;;;;;;;;;;;;5031196;28;917;-62
2022/03/29 16:57:53;;;;;;;;;;;;;;;;;;5031273;28;1445;-62
2022/03/29 17:00:18;;;;;;;;;;;;;;;;;;5031628;28;899;-62
2022/03/29 17:02:43;;;;;;;;;;;;;;;;;;5031088;28;755;-62
2022/03/29 17:05:09;;;;;;;;;;;;;;;;;;5030619;28;881;-62
2022/03/29 17:07:34;;;;;;;;;;;;;;;;;;5031077;28;938;-62
2022/03/29 17:09:59;;;;;;;;;;;;;;;;;;5030558;28;2039;-62
2022/03/29 17:12:26;;;;;;;;;;;;;;;;;;5030593;28;1159;-62
2022/03/29 17:14:51;;;;;;;;;;;;;;;;;;5030818;28;888;-62
2022/03/29 17:17:16;;;;;;;;;;;;;;;;;;5030629;28;963;-62
2022/03/29 17:19:42;;;;;;;;;;;;;;;;;;5030544;28;951;-62
2022/03/29 17:22:07;;;;;;;;;;;;;;;;;;5030456;28;928;-62